createdAt,value
2023-04-08T00:02:26.119Z,5.30
2023-04-08T00:04:57.084Z,5.30
2023-04-08T00:07:27.913Z,5.10
2023-04-08T00:09:58.779Z,5.40
2023-04-08T00:12:29.403Z,4.10
2023-04-08T00:15:00.275Z,3.90
2023-04-08T00:17:31.092Z,6.50
2023-04-08T00:20:02.034Z,6.90
2023-04-08T00:22:32.745Z,5.60
2023-04-08T00:25:06.757Z,6.00
2023-04-08T00:27:37.497Z,5.20
2023-04-08T00:30:10.167Z,7.20
2023-04-08T00:32:40.821Z,7.90
2023-04-08T00:35:12.913Z,6.60
2023-04-08T00:37:43.656Z,8.00
2023-04-08T00:40:15.076Z,7.40
2023-04-08T00:42:45.708Z,7.00
2023-04-08T00:45:16.789Z,7.20
2023-04-08T00:47:52.678Z,6.20
2023-04-08T00:50:25.080Z,6.90
2023-04-08T00:52:55.820Z,7.10
2023-04-08T00:55:26.810Z,6.80
2023-04-08T00:57:59.471Z,6.90
2023-04-08T01:00:31.924Z,7.00
2023-04-08T01:03:13.430Z,5.80
2023-04-08T01:05:55.554Z,6.30
2023-04-08T01:08:31.424Z,4.10
2023-04-08T01:11:05.370Z,6.20
2023-04-08T01:13:40.774Z,6.00
2023-04-08T01:16:16.798Z,6.40
2023-04-08T01:18:49.122Z,4.90
2023-04-08T01:21:22.018Z,6.40
2023-04-08T01:24:00.632Z,6.30
2023-04-08T01:26:31.980Z,6.40
2023-04-08T01:29:04.648Z,6.70
2023-04-08T01:31:37.519Z,6.50
2023-04-08T01:36:40.087Z,6.60
2023-04-08T01:39:12.505Z,7.50
2023-04-08T01:41:43.696Z,6.30
2023-04-08T01:44:15.664Z,6.20
2023-04-08T01:46:47.193Z,6.10
2023-04-08T01:49:19.051Z,5.90
2023-04-08T01:51:52.923Z,6.50
2023-04-08T01:54:23.696Z,5.40
2023-04-08T01:56:58.103Z,5.90
2023-04-08T01:59:32.818Z,6.60
2023-04-08T02:02:06.735Z,4.60
2023-04-08T02:04:37.810Z,5.20
2023-04-08T02:07:09.542Z,5.60
2023-04-08T02:09:40.344Z,5.60
2023-04-08T02:12:11.205Z,5.60
2023-04-08T02:14:42.119Z,5.50
2023-04-08T02:17:15.765Z,5.30
2023-04-08T02:19:54.639Z,5.20
2023-04-08T02:22:32.794Z,4.00
2023-04-08T02:25:05.857Z,5.50
2023-04-08T02:27:38.541Z,5.60
2023-04-08T02:30:12.038Z,4.50
2023-04-08T02:32:43.908Z,4.70
2023-04-08T02:35:16.545Z,3.70
2023-04-08T02:37:48.968Z,4.10
2023-04-08T02:40:28.066Z,4.80
2023-04-08T02:43:01.065Z,4.10
2023-04-08T02:45:34.377Z,4.80
2023-04-08T02:48:05.992Z,4.10
2023-04-08T02:50:36.777Z,4.00
2023-04-08T02:53:07.618Z,4.20
2023-04-08T02:55:39.608Z,3.70
2023-04-08T02:58:10.418Z,3.70
2023-04-08T03:00:41.540Z,3.90
2023-04-08T03:03:12.328Z,2.80
2023-04-08T03:05:43.896Z,3.90
2023-04-08T03:08:14.517Z,3.70
2023-04-08T03:10:45.501Z,3.20
2023-04-08T03:13:16.189Z,3.10
2023-04-08T03:15:46.923Z,3.50
2023-04-08T03:18:17.851Z,3.30
2023-04-08T03:20:48.568Z,3.00
2023-04-08T03:23:19.340Z,3.50
2023-04-08T03:25:49.951Z,2.90
2023-04-08T03:28:20.583Z,2.90
2023-04-08T03:30:51.566Z,3.30
2023-04-08T03:33:22.278Z,3.00
2023-04-08T03:35:52.927Z,3.00
2023-04-08T03:38:24.178Z,2.30
2023-04-08T03:40:54.863Z,2.70
2023-04-08T03:43:26.198Z,3.00
2023-04-08T03:45:57.339Z,3.20
2023-04-08T03:48:28.026Z,2.80
2023-04-08T03:50:58.599Z,3.20
2023-04-08T03:53:29.553Z,2.30
2023-04-08T03:56:00.429Z,2.60
2023-04-08T03:58:31.928Z,2.70
2023-04-08T04:01:02.648Z,3.30
2023-04-08T04:03:33.479Z,2.30
2023-04-08T04:06:04.467Z,2.30
2023-04-08T04:08:35.106Z,2.60
2023-04-08T04:11:05.947Z,2.10
2023-04-08T04:13:36.560Z,2.20
2023-04-08T04:16:08.044Z,2.60
2023-04-08T04:18:38.876Z,2.40
2023-04-08T04:21:10.272Z,2.30
2023-04-08T04:23:40.959Z,3.00
2023-04-08T04:26:12.723Z,2.50
2023-04-08T04:28:43.368Z,3.10
2023-04-08T04:31:22.722Z,2.90
2023-04-08T04:33:53.405Z,2.60
2023-04-08T04:36:24.109Z,2.60
2023-04-08T04:38:54.945Z,2.90
2023-04-08T04:41:27.319Z,2.70
2023-04-08T04:43:58.076Z,3.10
2023-04-08T04:46:28.809Z,3.10
2023-04-08T04:48:59.679Z,2.70
2023-04-08T04:51:32.194Z,3.00
2023-04-08T04:54:02.904Z,2.80
2023-04-08T04:56:33.546Z,2.60
2023-04-08T04:59:05.365Z,2.70
2023-04-08T05:01:36.149Z,3.10
2023-04-08T05:04:07.187Z,3.20
2023-04-08T05:06:38.023Z,3.00
2023-04-08T05:09:08.686Z,2.90
2023-04-08T05:11:39.271Z,3.50
2023-04-08T05:14:10.030Z,2.90
2023-04-08T05:16:40.737Z,3.10
2023-04-08T05:19:11.509Z,2.50
2023-04-08T05:21:42.683Z,2.20
2023-04-08T05:24:13.395Z,2.70
2023-04-08T05:26:44.076Z,2.60
2023-04-08T05:29:14.742Z,2.70
2023-04-08T05:31:45.637Z,2.50
2023-04-08T05:34:22.770Z,2.40
2023-04-08T05:36:53.878Z,2.50
2023-04-08T05:39:24.608Z,2.90
2023-04-08T05:41:55.398Z,4.00
2023-04-08T05:44:26.110Z,5.30
2023-04-08T05:46:57.901Z,5.10
2023-04-08T05:49:28.748Z,5.90
2023-04-08T05:51:59.354Z,4.70
2023-04-08T05:54:29.990Z,3.80
2023-04-08T05:57:00.602Z,4.20
2023-04-08T05:59:31.231Z,4.50
2023-04-08T06:02:01.867Z,4.60
2023-04-08T06:04:32.855Z,4.00
2023-04-08T06:07:04.559Z,3.60
2023-04-08T06:09:38.285Z,6.40
2023-04-08T06:12:09.414Z,6.10
2023-04-08T06:14:40.520Z,4.60
2023-04-08T06:17:11.451Z,3.10
2023-04-08T06:19:42.224Z,4.70
2023-04-08T06:22:12.809Z,3.80
2023-04-08T06:24:43.772Z,3.90
2023-04-08T06:27:14.410Z,4.00
2023-04-08T06:29:45.230Z,3.70
2023-04-08T06:32:16.240Z,4.90
2023-04-08T06:34:47.587Z,6.30
2023-04-08T06:37:18.225Z,5.70
2023-04-08T06:39:48.981Z,6.00
2023-04-08T06:42:19.958Z,6.20
2023-04-08T06:44:59.581Z,7.50
2023-04-08T06:47:30.713Z,6.80
2023-04-08T06:50:01.494Z,7.50
2023-04-08T06:52:32.138Z,7.90
2023-04-08T06:55:02.790Z,8.30
2023-04-08T06:57:33.534Z,9.20
2023-04-08T07:00:05.089Z,8.10
2023-04-08T07:02:35.870Z,7.50
2023-04-08T07:05:08.224Z,9.50
2023-04-08T07:07:38.988Z,7.00
2023-04-08T07:10:11.451Z,6.10
2023-04-08T07:12:42.275Z,8.50
2023-04-08T07:15:13.990Z,7.10
2023-04-08T07:17:45.156Z,6.80
2023-04-08T07:20:17.142Z,7.60
2023-04-08T07:22:47.730Z,7.10
2023-04-08T07:25:19.337Z,6.40
2023-04-08T07:27:50.144Z,7.20
2023-04-08T07:30:22.132Z,7.80
2023-04-08T07:32:56.261Z,6.50
2023-04-08T07:35:28.134Z,6.60
2023-04-08T07:37:58.963Z,5.60
2023-04-08T07:40:30.020Z,5.80
2023-04-08T07:43:00.646Z,5.30
2023-04-08T07:45:31.402Z,4.10
2023-04-08T07:48:02.353Z,2.30
2023-04-08T07:50:33.593Z,3.50
2023-04-08T07:53:04.277Z,3.80
2023-04-08T07:55:39.371Z,3.70
2023-04-08T07:58:10.091Z,3.00
2023-04-08T08:00:43.824Z,3.80
2023-04-08T08:03:14.544Z,2.80
2023-04-08T08:05:45.468Z,3.10
2023-04-08T08:08:16.570Z,3.40
2023-04-08T08:10:47.280Z,2.50
2023-04-08T08:13:21.226Z,2.80
2023-04-08T08:15:54.939Z,3.00
2023-04-08T08:18:25.819Z,3.30
2023-04-08T08:20:56.454Z,2.70
2023-04-08T08:23:27.256Z,2.60
2023-04-08T08:26:03.533Z,2.90
2023-04-08T08:28:34.455Z,2.20
2023-04-08T08:31:06.287Z,2.30
2023-04-08T08:33:37.176Z,2.30
2023-04-08T08:36:08.440Z,3.00
2023-04-08T08:38:39.265Z,2.40
2023-04-08T08:41:09.896Z,2.90
2023-04-08T08:43:41.292Z,2.90
2023-04-08T08:46:13.294Z,2.90
2023-04-08T08:48:44.192Z,3.20
2023-04-08T08:51:15.459Z,3.50
2023-04-08T08:53:46.694Z,3.70
2023-04-08T08:56:18.931Z,3.30
2023-04-08T08:58:50.210Z,3.80
2023-04-08T09:01:38.576Z,3.20
2023-04-08T09:04:16.947Z,3.80
2023-04-08T09:06:50.204Z,3.60
2023-04-08T09:09:21.278Z,4.10
2023-04-08T09:12:03.767Z,4.00
2023-04-08T09:14:35.610Z,4.60
2023-04-08T09:17:06.422Z,5.60
2023-04-08T09:19:37.570Z,5.00
2023-04-08T09:22:09.973Z,4.90
2023-04-08T09:24:40.975Z,3.50
2023-04-08T09:27:12.333Z,5.10
2023-04-08T09:29:43.566Z,3.70
2023-04-08T09:32:14.230Z,4.90
2023-04-08T09:34:44.906Z,5.00
2023-04-08T09:37:15.582Z,4.10
2023-04-08T09:39:46.320Z,4.50
2023-04-08T09:42:17.601Z,6.40
2023-04-08T09:44:49.455Z,5.40
2023-04-08T09:47:25.260Z,5.00
2023-04-08T09:50:04.081Z,4.90
2023-04-08T09:52:41.276Z,5.90
2023-04-08T09:55:18.744Z,4.10
2023-04-08T09:57:56.742Z,6.20
2023-04-08T10:00:33.600Z,5.10
2023-04-08T10:03:12.280Z,5.00
2023-04-08T10:08:14.091Z,5.60
2023-04-08T10:10:47.857Z,6.30
2023-04-08T10:13:19.313Z,5.00
2023-04-08T10:15:50.008Z,5.40
2023-04-08T10:18:36.523Z,5.40
2023-04-08T10:21:27.619Z,5.90
2023-04-08T10:24:05.995Z,5.60
2023-04-08T10:26:41.823Z,5.70
2023-04-08T10:29:46.389Z,5.80
2023-04-08T10:32:41.777Z,5.70
2023-04-08T10:35:12.517Z,5.40
2023-04-08T10:37:43.725Z,5.60
2023-04-08T10:40:21.724Z,3.80
2023-04-08T10:42:57.472Z,5.50
2023-04-08T10:45:28.163Z,4.40
2023-04-08T10:47:58.856Z,4.50
2023-04-08T10:50:29.615Z,4.40
2023-04-08T10:53:00.414Z,4.50
2023-04-08T10:55:32.206Z,4.60
2023-04-08T10:58:10.122Z,4.40
2023-04-08T11:00:41.628Z,4.50
2023-04-08T11:03:15.548Z,4.50
2023-04-08T11:05:47.087Z,4.30
2023-04-08T11:08:20.897Z,5.30
2023-04-08T11:10:52.981Z,4.90
2023-04-08T11:13:24.633Z,5.80
2023-04-08T11:15:55.622Z,4.30
2023-04-08T11:18:28.598Z,2.80
2023-04-08T11:21:00.482Z,7.80
2023-04-08T11:23:31.616Z,7.80
2023-04-08T11:26:04.169Z,5.80
2023-04-08T11:28:37.834Z,7.30
2023-04-08T11:31:09.166Z,8.50
2023-04-08T11:33:45.406Z,7.60
2023-04-08T11:36:16.176Z,9.00
2023-04-08T11:38:48.022Z,9.50
2023-04-08T11:41:19.100Z,7.30
2023-04-08T11:43:57.198Z,8.90
2023-04-08T11:46:28.144Z,8.10
2023-04-08T11:49:04.246Z,11.60
2023-04-08T11:51:35.908Z,7.20
2023-04-08T11:54:27.774Z,7.60
2023-04-08T11:56:59.006Z,8.70
2023-04-08T11:59:30.017Z,9.20
2023-04-08T12:02:02.045Z,8.30
2023-04-08T12:04:34.127Z,9.10
2023-04-08T12:07:05.529Z,8.10
2023-04-08T12:09:36.224Z,8.90
2023-04-08T12:12:07.355Z,8.90
2023-04-08T12:14:38.218Z,9.30
2023-04-08T12:17:08.800Z,8.80
2023-04-08T12:19:39.489Z,8.60
2023-04-08T12:22:10.053Z,8.60
2023-04-08T12:24:40.879Z,6.70
2023-04-08T12:27:11.617Z,8.90
2023-04-08T12:29:42.273Z,9.10
2023-04-08T12:32:13.552Z,9.70
2023-04-08T12:34:44.245Z,7.60
2023-04-08T12:37:14.835Z,10.00
2023-04-08T12:39:45.964Z,9.60
2023-04-08T12:42:16.875Z,10.30
2023-04-08T12:44:47.647Z,11.10
2023-04-08T12:47:19.210Z,11.10
2023-04-08T12:49:50.175Z,10.20
2023-04-08T12:52:21.013Z,5.10
2023-04-08T12:54:51.694Z,10.00
2023-04-08T12:57:22.845Z,10.40
2023-04-08T12:59:54.103Z,10.30
2023-04-08T13:02:25.676Z,9.40
2023-04-08T13:04:56.550Z,9.20
2023-04-08T13:07:27.346Z,9.80
2023-04-08T13:09:58.011Z,9.30
2023-04-08T13:12:28.814Z,9.30
2023-04-08T13:15:00.146Z,10.80
2023-04-08T13:17:30.817Z,10.80
2023-04-08T13:20:02.026Z,7.40
2023-04-08T13:22:33.772Z,10.30
2023-04-08T13:25:06.652Z,10.50
2023-04-08T13:27:38.347Z,12.20
2023-04-08T13:30:11.564Z,10.20
2023-04-08T13:32:42.238Z,7.70
2023-04-08T13:35:13.509Z,6.50
2023-04-08T13:37:44.649Z,8.70
2023-04-08T13:40:15.838Z,8.90
2023-04-08T13:42:46.720Z,7.60
2023-04-08T13:45:17.496Z,8.30
2023-04-08T13:47:48.546Z,8.00
2023-04-08T13:50:19.471Z,10.40
2023-04-08T13:52:50.502Z,8.10
2023-04-08T13:55:22.263Z,7.30
2023-04-08T13:57:53.058Z,7.60
2023-04-08T14:00:25.388Z,7.30
2023-04-08T14:02:56.077Z,7.20
2023-04-08T14:05:27.315Z,7.10
2023-04-08T14:07:57.896Z,8.00
2023-04-08T14:10:28.559Z,6.70
2023-04-08T14:12:59.141Z,7.10
2023-04-08T14:15:29.827Z,6.40
2023-04-08T14:18:00.830Z,6.90
2023-04-08T14:20:32.034Z,6.40
2023-04-08T14:23:02.781Z,6.90
2023-04-08T14:25:33.529Z,7.10
2023-04-08T14:28:04.198Z,5.90
2023-04-08T14:30:35.608Z,6.90
2023-04-08T14:33:06.589Z,8.10
2023-04-08T14:35:37.906Z,5.90
2023-04-08T14:38:09.061Z,5.90
2023-04-08T14:40:39.660Z,6.20
2023-04-08T14:43:10.418Z,6.70
2023-04-08T14:45:41.174Z,7.90
2023-04-08T14:48:11.982Z,7.20
2023-04-08T14:50:42.708Z,7.50
2023-04-08T14:53:13.357Z,5.30
2023-04-08T14:55:44.059Z,6.50
2023-04-08T14:58:14.768Z,7.20
2023-04-08T15:00:47.686Z,5.90
2023-04-08T15:03:18.906Z,7.50
2023-04-08T15:05:59.723Z,7.20
2023-04-08T15:08:30.775Z,6.90
2023-04-08T15:11:01.498Z,6.50
2023-04-08T15:13:32.182Z,6.30
2023-04-08T15:16:02.925Z,6.10
2023-04-08T15:18:33.816Z,7.00
2023-04-08T15:21:04.492Z,5.10
2023-04-08T15:23:35.122Z,7.40
2023-04-08T15:26:05.898Z,5.90
2023-04-08T15:31:22.780Z,5.90
2023-04-08T15:33:54.269Z,6.60
2023-04-08T15:36:25.237Z,8.00
2023-04-08T15:38:56.155Z,6.00
2023-04-08T15:41:27.182Z,7.80
2023-04-08T15:43:57.847Z,7.30
2023-04-08T15:46:28.561Z,7.90
2023-04-08T15:49:01.320Z,8.50
2023-04-08T15:54:01.341Z,6.50
2023-04-08T15:56:33.024Z,8.90
2023-04-08T15:59:03.881Z,7.50
2023-04-08T16:01:34.865Z,7.10
2023-04-08T16:04:05.902Z,7.00
2023-04-08T16:06:36.887Z,7.60
2023-04-08T16:09:07.840Z,7.20
2023-04-08T16:11:38.509Z,5.80
2023-04-08T16:14:09.266Z,6.00
2023-04-08T16:16:40.744Z,8.20
2023-04-08T16:19:11.547Z,7.60
2023-04-08T16:21:42.746Z,6.30
2023-04-08T16:24:14.229Z,6.10
2023-04-08T16:26:44.978Z,8.10
2023-04-08T16:29:15.687Z,10.30
2023-04-08T16:31:46.315Z,8.60
2023-04-08T16:34:17.011Z,5.50
2023-04-08T16:36:47.936Z,6.60
2023-04-08T16:39:18.625Z,8.20
2023-04-08T16:41:49.373Z,7.40
2023-04-08T16:44:20.258Z,8.50
2023-04-08T16:46:50.949Z,8.50
2023-04-08T16:49:21.680Z,8.10
2023-04-08T16:51:52.404Z,7.70
2023-04-08T16:54:22.956Z,8.30
2023-04-08T16:56:53.674Z,7.50
2023-04-08T16:59:24.732Z,7.80
2023-04-08T17:01:57.215Z,7.70
2023-04-08T17:04:28.049Z,7.50
2023-04-08T17:06:59.084Z,6.20
2023-04-08T17:09:31.118Z,5.60
2023-04-08T17:12:02.206Z,9.30
2023-04-08T17:14:32.922Z,7.70
2023-04-08T17:17:04.607Z,7.40
2023-04-08T17:19:35.250Z,7.30
2023-04-08T17:22:06.131Z,7.60
2023-04-08T17:24:36.785Z,7.40
2023-04-08T17:27:07.405Z,8.60
2023-04-08T17:29:38.084Z,7.50
2023-04-08T17:32:08.841Z,7.60
2023-04-08T17:34:39.563Z,8.10
2023-04-08T17:37:10.656Z,7.70
2023-04-08T17:39:41.717Z,8.10
2023-04-08T17:42:13.220Z,9.20
2023-04-08T17:44:44.876Z,8.60
2023-04-08T17:47:15.846Z,8.30
2023-04-08T17:49:46.429Z,8.70
2023-04-08T17:52:17.099Z,8.40
2023-04-08T17:54:47.791Z,8.00
2023-04-08T17:57:18.924Z,8.40
2023-04-08T17:59:49.711Z,8.30
2023-04-08T18:02:20.416Z,8.80
2023-04-08T18:04:53.553Z,8.50
2023-04-08T18:07:24.114Z,7.10
2023-04-08T18:09:55.067Z,8.50
2023-04-08T18:12:26.251Z,7.90
2023-04-08T18:14:57.560Z,9.10
2023-04-08T18:17:32.750Z,8.00
2023-04-08T18:20:03.424Z,7.80
2023-04-08T18:22:34.238Z,8.70
2023-04-08T18:25:05.369Z,8.70
2023-04-08T18:27:36.315Z,8.10
2023-04-08T18:30:08.758Z,8.10
2023-04-08T18:32:39.382Z,8.90
2023-04-08T18:35:11.227Z,6.50
2023-04-08T18:37:42.082Z,9.10
2023-04-08T18:40:14.172Z,8.60
2023-04-08T18:42:44.762Z,8.70
2023-04-08T18:45:15.747Z,10.40
2023-04-08T18:47:46.555Z,9.20
2023-04-08T18:50:17.428Z,9.50
2023-04-08T18:52:48.139Z,9.20
2023-04-08T18:55:19.540Z,9.40
2023-04-08T18:57:50.798Z,9.50
2023-04-08T19:00:21.934Z,11.10
2023-04-08T19:02:53.024Z,10.70
2023-04-08T19:05:24.137Z,10.00
2023-04-08T19:07:54.766Z,12.40
2023-04-08T19:10:26.407Z,9.70
2023-04-08T19:12:57.282Z,11.50
2023-04-08T19:15:28.847Z,11.90
2023-04-08T19:18:00.678Z,10.30
2023-04-08T19:20:32.058Z,11.30
2023-04-08T19:23:02.753Z,11.90
2023-04-08T19:25:33.644Z,11.50
2023-04-08T19:28:05.964Z,10.00
2023-04-08T19:30:39.455Z,11.10
2023-04-08T19:33:10.655Z,12.10
2023-04-08T19:35:41.753Z,11.60
2023-04-08T19:38:13.299Z,12.10
2023-04-08T19:40:44.062Z,12.00
2023-04-08T19:43:14.757Z,10.60
2023-04-08T19:45:45.530Z,12.20
2023-04-08T19:48:16.437Z,12.70
2023-04-08T19:50:47.365Z,12.20
2023-04-08T19:53:18.545Z,13.60
2023-04-08T19:55:49.134Z,12.60
2023-04-08T19:58:19.780Z,13.60
2023-04-08T20:00:50.502Z,12.60
2023-04-08T20:03:21.597Z,12.30
2023-04-08T20:05:52.467Z,12.40
2023-04-08T20:08:23.189Z,12.00
2023-04-08T20:10:54.704Z,12.30
2023-04-08T20:13:27.811Z,12.60
2023-04-08T20:15:59.031Z,12.50
2023-04-08T20:18:29.840Z,11.80
2023-04-08T20:21:01.073Z,10.60
2023-04-08T20:23:31.818Z,10.10
2023-04-08T20:26:02.767Z,10.60
2023-04-08T20:28:33.520Z,11.30
2023-04-08T20:31:04.536Z,10.70
2023-04-08T20:33:35.684Z,11.70
2023-04-08T20:36:06.741Z,9.10
2023-04-08T20:38:37.834Z,8.90
2023-04-08T20:41:08.527Z,10.80
2023-04-08T20:43:39.523Z,9.80
2023-04-08T20:46:10.581Z,11.30
2023-04-08T20:48:41.962Z,8.80
2023-04-08T20:51:12.643Z,8.00
2023-04-08T20:53:44.540Z,11.00
2023-04-08T20:56:15.499Z,11.00
2023-04-08T20:58:46.381Z,9.10
2023-04-08T21:01:17.183Z,9.50
2023-04-08T21:03:47.951Z,12.60
2023-04-08T21:06:22.248Z,12.80
2023-04-08T21:08:53.424Z,9.00
2023-04-08T21:11:24.504Z,9.00
2023-04-08T21:13:55.288Z,10.40
2023-04-08T21:16:25.966Z,10.10
2023-04-08T21:19:01.874Z,10.90
2023-04-08T21:21:32.763Z,11.60
2023-04-08T21:24:03.845Z,12.30
2023-04-08T21:26:34.389Z,9.70
2023-04-08T21:29:05.133Z,9.80
2023-04-08T21:31:36.188Z,8.80
2023-04-08T21:34:07.038Z,14.00
2023-04-08T21:36:37.800Z,11.30
2023-04-08T21:39:08.604Z,10.80
2023-04-08T21:41:39.181Z,10.60
2023-04-08T21:44:10.266Z,8.90
2023-04-08T21:46:41.063Z,8.60
2023-04-08T21:49:12.071Z,8.30
2023-04-08T21:51:43.028Z,11.50
2023-04-08T21:54:13.911Z,9.00
2023-04-08T21:56:44.655Z,9.70
2023-04-08T21:59:15.362Z,9.10
2023-04-08T22:01:46.119Z,11.00
2023-04-08T22:04:16.981Z,10.70
2023-04-08T22:06:49.346Z,12.10
2023-04-08T22:09:20.513Z,11.70
2023-04-08T22:11:51.186Z,11.50
2023-04-08T22:14:21.829Z,9.10
2023-04-08T22:16:52.472Z,10.90
2023-04-08T22:19:23.493Z,10.60
2023-04-08T22:21:54.315Z,10.70
2023-04-08T22:24:24.910Z,11.10
2023-04-08T22:26:57.411Z,12.30
2023-04-08T22:29:28.014Z,9.70
2023-04-08T22:31:59.030Z,11.40
2023-04-08T22:34:29.653Z,9.60
2023-04-08T22:37:00.662Z,11.50
2023-04-08T22:39:31.403Z,11.30
2023-04-08T22:42:02.151Z,11.10
2023-04-08T22:44:32.871Z,12.10
2023-04-08T22:47:03.553Z,9.10
2023-04-08T22:49:34.189Z,11.60
2023-04-08T22:52:04.977Z,11.30
2023-04-08T22:54:35.681Z,12.10
2023-04-08T22:57:06.571Z,13.90
2023-04-08T22:59:37.236Z,11.30
2023-04-08T23:02:08.134Z,11.60
2023-04-08T23:04:38.844Z,11.50
2023-04-08T23:07:09.485Z,10.10
2023-04-08T23:09:40.378Z,11.10
2023-04-08T23:12:11.092Z,10.20
2023-04-08T23:14:42.115Z,16.80
2023-04-08T23:17:12.852Z,16.70
2023-04-08T23:19:43.653Z,13.40
2023-04-08T23:22:14.364Z,11.50
2023-04-08T23:24:45.054Z,12.60
2023-04-08T23:27:15.756Z,11.40
2023-04-08T23:29:46.432Z,10.90
2023-04-08T23:32:17.209Z,10.50
2023-04-08T23:34:47.971Z,11.10
2023-04-08T23:37:18.548Z,8.90
2023-04-08T23:39:49.310Z,12.70
2023-04-08T23:42:20.493Z,13.00
2023-04-08T23:44:51.192Z,9.60
2023-04-08T23:47:22.016Z,9.30
2023-04-08T23:49:52.731Z,10.70
2023-04-08T23:52:23.448Z,11.10
2023-04-08T23:54:54.094Z,10.90
2023-04-08T23:57:24.797Z,12.10
2023-04-08T23:59:55.613Z,10.20
